This is the latest recevied weather packets stored in our database for station/object OM6ABF-11. If no packets are shown the sender has not sent any weather packets the latest 10 day(s).
| Time | Temp. | Humidity | Pressure | Rain* | Wind** | Luminosity | Snow |
|---|---|---|---|---|---|---|---|
| 1777875362 | 12.22° C | 47% | 1020.5 hPa | - | - | - | - |
| 1777874462 | 12.78° C | 46% | 1020.7 hPa | - | - | - | - |
| 1777873562 | 10.56° C | 50% | 1020.8 hPa | - | - | - | - |
| 1777872663 | 11.11° C | 48% | 1020.8 hPa | - | - | - | - |
| 1777871763 | 9.44° C | 51% | 1020.8 hPa | - | - | - | - |
| 1777870864 | 8.33° C | 53% | 1020.9 hPa | - | - | - | - |
| 1777869965 | 6.67° C | 59% | 1020.9 hPa | - | - | - | - |
| 1777869066 | 5.56° C | 62% | 1020.8 hPa | - | - | - | - |
| 1777868166 | 4.44° C | 70% | 1020.8 hPa | - | - | - | - |
| 1777867267 | 1.67° C | 79% | 1020.9 hPa | - | - | - | - |
| 1777866367 | -0.56° C | 82% | 1020.8 hPa | - | - | - | - |
| 1777865468 | 0° C | 83% | 1020.8 hPa | - | - | - | - |
| 1777864570 | -0.56° C | 83% | 1020.6 hPa | - | - | - | - |
| 1777863671 | 0° C | 83% | 1020.5 hPa | - | - | - | - |
| 1777862771 | 0° C | 83% | 1020.7 hPa | - | - | - | - |
| 1777861871 | 0° C | 83% | 1020.7 hPa | - | - | - | - |
| 1777860973 | 0° C | 83% | 1020.7 hPa | - | - | - | - |
| 1777860073 | 0.56° C | 83% | 1020.6 hPa | - | - | - | - |
| 1777859173 | 0.56° C | 82% | 1020.7 hPa | - | - | - | - |
| 1777858275 | 0.56° C | 81% | 1020.5 hPa | - | - | - | - |
| 1777857375 | 0.56° C | 81% | 1020.6 hPa | - | - | - | - |
| 1777856476 | 1.11° C | 80% | 1020.6 hPa | - | - | - | - |
| 1777855576 | 1.67° C | 78% | 1020.5 hPa | - | - | - | - |
| 1777854678 | 2.22° C | 77% | 1020.6 hPa | - | - | - | - |
| 1777853780 | 2.22° C | 77% | 1020.6 hPa | - | - | - | - |
* Rain since midnight (hover to see other rain measurements)
** Current wind speed in m/s (hover to see current wind gust speed)